Delta Virtual Airport Information Service

Niagara Falls International Airport

ICAO: KIAG Country: United States
Latitude: 43.1073 Longitude: -78.9461
Latest Arrival : DAX780 (KRIC-KIAG) Latest Departure : DAC1 (KIAG-KRIV)


WX CaptureLIVE
Data provided by noaa.gov | Fetched at 11:48:39

METAR : KIAG 281553Z 09010KT 10SM CLR 12/07 A2991 RMK AO2 SLP135 T01220067

TAF : KIAG 281603Z 2816/2912 09011KT P6SM BKN250 FM282300 08011KT P6SM SCT250 FM290800 10008KT P6SM SCT045


Runway Data for KIAG
Data provided by openaviationdata.com

Runway ID Mag Var Hdg Length Elevation Surface ILS Freq ILS Id ILS Slope
6 -10 60° 5183 ft 590 ft Asphalt -- -- --
10L -10 100° 9810 ft 590 ft Asphalt -- -- --
10R -10 100° 3966 ft 590 ft Asphalt -- -- --
24 -10 240° 5183 ft 590 ft Asphalt -- -- --
28L -10 280° 3966 ft 590 ft Asphalt -- -- --
28R -10 280° 9810 ft 590 ft Asphalt 110.1 IIAG 2

Niagara Falls International Airport, United States
Use only for reference purposes



Not for navigational purposes.